sensor_id;sensor_type;location;lat;lon;timestamp;temperature;humidity
67005;HTU21D;53920;51.094;5.902;2023-07-08T00:01:18;21.25;50.64
67005;HTU21D;53920;51.094;5.902;2023-07-08T00:03:44;21.29;50.15
67005;HTU21D;53920;51.094;5.902;2023-07-08T00:06:18;21.31;49.63
67005;HTU21D;53920;51.094;5.902;2023-07-08T00:08:44;21.34;49.89
67005;HTU21D;53920;51.094;5.902;2023-07-08T00:11:12;21.38;49.79
67005;HTU21D;53920;51.094;5.902;2023-07-08T00:13:38;21.38;49.85
67005;HTU21D;53920;51.094;5.902;2023-07-08T00:16:06;21.42;49.77
67005;HTU21D;53920;51.094;5.902;2023-07-08T00:18:33;21.43;49.77
67005;HTU21D;53920;51.094;5.902;2023-07-08T00:20:59;21.40;49.98
67005;HTU21D;53920;51.094;5.902;2023-07-08T00:23:25;21.38;50.12
67005;HTU21D;53920;51.094;5.902;2023-07-08T00:25:51;21.34;49.91
67005;HTU21D;53920;51.094;5.902;2023-07-08T00:28:20;21.31;50.22
67005;HTU21D;53920;51.094;5.902;2023-07-08T00:30:48;21.28;50.30
67005;HTU21D;53920;51.094;5.902;2023-07-08T00:33:15;21.27;50.21
67005;HTU21D;53920;51.094;5.902;2023-07-08T00:35:44;21.23;50.50
67005;HTU21D;53920;51.094;5.902;2023-07-08T00:38:24;21.20;50.66
67005;HTU21D;53920;51.094;5.902;2023-07-08T00:41:49;21.14;51.07
67005;HTU21D;53920;51.094;5.902;2023-07-08T00:43:52;21.05;51.04
67005;HTU21D;53920;51.094;5.902;2023-07-08T00:51:38;20.88;51.67
67005;HTU21D;53920;51.094;5.902;2023-07-08T00:54:13;20.85;52.01
67005;HTU21D;53920;51.094;5.902;2023-07-08T00:56:47;20.85;52.32
67005;HTU21D;53920;51.094;5.902;2023-07-08T01:01:52;20.87;51.99
67005;HTU21D;53920;51.094;5.902;2023-07-08T01:04:24;20.86;52.04
67005;HTU21D;53920;51.094;5.902;2023-07-08T01:06:55;20.85;52.26
67005;HTU21D;53920;51.094;5.902;2023-07-08T01:09:30;20.86;52.41
67005;HTU21D;53920;51.094;5.902;2023-07-08T01:12:03;20.85;52.18
67005;HTU21D;53920;51.094;5.902;2023-07-08T01:14:33;20.85;52.55
67005;HTU21D;53920;51.094;5.902;2023-07-08T01:17:01;20.81;52.60
67005;HTU21D;53920;51.094;5.902;2023-07-08T01:19:28;20.78;52.57
67005;HTU21D;53920;51.094;5.902;2023-07-08T01:22:03;20.75;52.92
67005;HTU21D;53920;51.094;5.902;2023-07-08T01:24:32;20.70;53.69
67005;HTU21D;53920;51.094;5.902;2023-07-08T01:27:00;20.63;54.23
67005;HTU21D;53920;51.094;5.902;2023-07-08T01:29:27;20.58;54.58
67005;HTU21D;53920;51.094;5.902;2023-07-08T01:31:58;20.53;54.72
67005;HTU21D;53920;51.094;5.902;2023-07-08T01:34:29;20.53;54.50
67005;HTU21D;53920;51.094;5.902;2023-07-08T01:36:58;20.53;54.42
67005;HTU21D;53920;51.094;5.902;2023-07-08T01:39:28;20.50;54.03
67005;HTU21D;53920;51.094;5.902;2023-07-08T01:41:56;20.51;53.71
67005;HTU21D;53920;51.094;5.902;2023-07-08T01:44:30;20.55;53.08
67005;HTU21D;53920;51.094;5.902;2023-07-08T01:47:13;20.61;53.50
67005;HTU21D;53920;51.094;5.902;2023-07-08T01:49:42;20.62;53.28
67005;HTU21D;53920;51.094;5.902;2023-07-08T01:52:11;20.64;53.13
67005;HTU21D;53920;51.094;5.902;2023-07-08T01:54:38;20.66;53.20
67005;HTU21D;53920;51.094;5.902;2023-07-08T01:57:04;20.65;53.01
67005;HTU21D;53920;51.094;5.902;2023-07-08T01:59:30;20.66;52.92
67005;HTU21D;53920;51.094;5.902;2023-07-08T02:01:56;20.64;53.13
67005;HTU21D;53920;51.094;5.902;2023-07-08T02:04:23;20.59;53.18
67005;HTU21D;53920;51.094;5.902;2023-07-08T02:06:58;20.53;53.52
67005;HTU21D;53920;51.094;5.902;2023-07-08T02:09:25;20.45;54.07
67005;HTU21D;53920;51.094;5.902;2023-07-08T02:11:54;20.35;54.79
67005;HTU21D;53920;51.094;5.902;2023-07-08T02:14:20;20.27;55.04
67005;HTU21D;53920;51.094;5.902;2023-07-08T02:16:46;20.17;55.36
67005;HTU21D;53920;51.094;5.902;2023-07-08T02:19:13;20.09;55.85
67005;HTU21D;53920;51.094;5.902;2023-07-08T02:21:38;19.98;56.12
67005;HTU21D;53920;51.094;5.902;2023-07-08T02:24:05;19.89;56.39
67005;HTU21D;53920;51.094;5.902;2023-07-08T02:26:32;19.82;56.47
67005;HTU21D;53920;51.094;5.902;2023-07-08T02:28:58;19.75;56.54
67005;HTU21D;53920;51.094;5.902;2023-07-08T02:31:24;19.71;56.49
67005;HTU21D;53920;51.094;5.902;2023-07-08T02:33:54;19.62;56.67
67005;HTU21D;53920;51.094;5.902;2023-07-08T02:36:20;19.58;56.77
67005;HTU21D;53920;51.094;5.902;2023-07-08T02:38:46;19.51;56.94
67005;HTU21D;53920;51.094;5.902;2023-07-08T02:41:12;19.45;57.27
67005;HTU21D;53920;51.094;5.902;2023-07-08T02:43:39;19.40;57.69
67005;HTU21D;53920;51.094;5.902;2023-07-08T02:46:05;19.33;57.84
67005;HTU21D;53920;51.094;5.902;2023-07-08T02:48:31;19.28;58.18
67005;HTU21D;53920;51.094;5.902;2023-07-08T02:51:00;19.21;58.61
67005;HTU21D;53920;51.094;5.902;2023-07-08T02:53:26;19.13;58.53
67005;HTU21D;53920;51.094;5.902;2023-07-08T02:55:52;19.05;58.81
67005;HTU21D;53920;51.094;5.902;2023-07-08T02:58:18;19.01;59.26
67005;HTU21D;53920;51.094;5.902;2023-07-08T03:00:43;18.98;59.46
67005;HTU21D;53920;51.094;5.902;2023-07-08T03:03:09;18.93;59.55
67005;HTU21D;53920;51.094;5.902;2023-07-08T03:05:35;18.92;59.62
67005;HTU21D;53920;51.094;5.902;2023-07-08T03:08:01;18.89;59.67
67005;HTU21D;53920;51.094;5.902;2023-07-08T03:10:27;18.88;59.96
67005;HTU21D;53920;51.094;5.902;2023-07-08T03:12:55;18.91;60.23
67005;HTU21D;53920;51.094;5.902;2023-07-08T03:15:22;18.94;60.17
67005;HTU21D;53920;51.094;5.902;2023-07-08T03:17:48;18.95;60.24
67005;HTU21D;53920;51.094;5.902;2023-07-08T03:20:13;18.96;60.18
67005;HTU21D;53920;51.094;5.902;2023-07-08T03:22:39;18.95;60.14
67005;HTU21D;53920;51.094;5.902;2023-07-08T03:25:06;18.94;60.38
67005;HTU21D;53920;51.094;5.902;2023-07-08T03:27:32;18.91;60.49
67005;HTU21D;53920;51.094;5.902;2023-07-08T03:29:58;18.87;60.62
67005;HTU21D;53920;51.094;5.902;2023-07-08T03:32:24;18.82;60.85
67005;HTU21D;53920;51.094;5.902;2023-07-08T03:34:51;18.79;61.23
67005;HTU21D;53920;51.094;5.902;2023-07-08T03:37:17;18.73;61.44
67005;HTU21D;53920;51.094;5.902;2023-07-08T03:39:42;18.69;61.70
67005;HTU21D;53920;51.094;5.902;2023-07-08T03:42:09;18.67;61.53
67005;HTU21D;53920;51.094;5.902;2023-07-08T03:44:35;18.71;61.47
67005;HTU21D;53920;51.094;5.902;2023-07-08T03:47:01;18.76;61.72
67005;HTU21D;53920;51.094;5.902;2023-07-08T03:49:26;18.79;61.76
67005;HTU21D;53920;51.094;5.902;2023-07-08T03:51:54;18.77;62.02
67005;HTU21D;53920;51.094;5.902;2023-07-08T03:54:23;18.77;62.12
67005;HTU21D;53920;51.094;5.902;2023-07-08T03:56:49;18.78;62.08
67005;HTU21D;53920;51.094;5.902;2023-07-08T03:59:15;18.82;62.21
67005;HTU21D;53920;51.094;5.902;2023-07-08T04:01:41;18.88;62.21
67005;HTU21D;53920;51.094;5.902;2023-07-08T04:04:13;18.94;62.02
67005;HTU21D;53920;51.094;5.902;2023-07-08T04:06:39;18.96;61.88
67005;HTU21D;53920;51.094;5.902;2023-07-08T04:09:06;18.96;61.92
67005;HTU21D;53920;51.094;5.902;2023-07-08T04:11:32;18.98;62.03
67005;HTU21D;53920;51.094;5.902;2023-07-08T04:13:59;18.98;62.18
67005;HTU21D;53920;51.094;5.902;2023-07-08T04:16:29;18.95;62.44
67005;HTU21D;53920;51.094;5.902;2023-07-08T04:18:56;18.97;62.72
67005;HTU21D;53920;51.094;5.902;2023-07-08T04:21:24;18.99;62.82
67005;HTU21D;53920;51.094;5.902;2023-07-08T04:23:53;19.11;63.40
67005;HTU21D;53920;51.094;5.902;2023-07-08T04:26:19;19.24;64.58
67005;HTU21D;53920;51.094;5.902;2023-07-08T04:28:45;19.36;64.22
67005;HTU21D;53920;51.094;5.902;2023-07-08T04:31:11;19.46;63.79
67005;HTU21D;53920;51.094;5.902;2023-07-08T04:33:37;19.52;63.24
67005;HTU21D;53920;51.094;5.902;2023-07-08T04:36:03;19.57;63.84
67005;HTU21D;53920;51.094;5.902;2023-07-08T04:38:29;19.52;64.49
67005;HTU21D;53920;51.094;5.902;2023-07-08T04:40:55;19.48;64.40
67005;HTU21D;53920;51.094;5.902;2023-07-08T04:43:23;19.41;64.05
67005;HTU21D;53920;51.094;5.902;2023-07-08T04:45:54;19.36;64.43
67005;HTU21D;53920;51.094;5.902;2023-07-08T04:48:21;19.30;64.47
67005;HTU21D;53920;51.094;5.902;2023-07-08T04:50:51;19.25;64.66
67005;HTU21D;53920;51.094;5.902;2023-07-08T04:53:17;19.17;64.25
67005;HTU21D;53920;51.094;5.902;2023-07-08T04:55:54;19.14;63.90
67005;HTU21D;53920;51.094;5.902;2023-07-08T04:58:21;19.14;64.36
67005;HTU21D;53920;51.094;5.902;2023-07-08T05:00:47;19.14;64.33
67005;HTU21D;53920;51.094;5.902;2023-07-08T05:03:13;19.13;64.18
67005;HTU21D;53920;51.094;5.902;2023-07-08T05:05:39;19.13;64.11
67005;HTU21D;53920;51.094;5.902;2023-07-08T05:08:06;19.16;64.99
67005;HTU21D;53920;51.094;5.902;2023-07-08T05:10:33;19.17;66.36
67005;HTU21D;53920;51.094;5.902;2023-07-08T05:12:59;19.17;66.98
67005;HTU21D;53920;51.094;5.902;2023-07-08T05:15:26;19.18;68.04
67005;HTU21D;53920;51.094;5.902;2023-07-08T05:17:52;19.22;68.64
67005;HTU21D;53920;51.094;5.902;2023-07-08T05:20:18;19.28;68.84
67005;HTU21D;53920;51.094;5.902;2023-07-08T05:22:45;19.37;69.14
67005;HTU21D;53920;51.094;5.902;2023-07-08T05:25:12;19.47;69.52
67005;HTU21D;53920;51.094;5.902;2023-07-08T05:27:38;19.55;69.06
67005;HTU21D;53920;51.094;5.902;2023-07-08T05:30:06;19.66;68.82
67005;HTU21D;53920;51.094;5.902;2023-07-08T05:32:33;19.75;68.49
67005;HTU21D;53920;51.094;5.902;2023-07-08T05:34:59;19.87;65.56
67005;HTU21D;53920;51.094;5.902;2023-07-08T05:37:25;20.06;63.77
67005;HTU21D;53920;51.094;5.902;2023-07-08T05:39:53;20.26;62.11
67005;HTU21D;53920;51.094;5.902;2023-07-08T05:42:21;20.43;60.28
67005;HTU21D;53920;51.094;5.902;2023-07-08T05:44:47;20.62;59.78
67005;HTU21D;53920;51.094;5.902;2023-07-08T05:47:13;20.77;60.83
67005;HTU21D;53920;51.094;5.902;2023-07-08T05:49:39;20.88;60.75
67005;HTU21D;53920;51.094;5.902;2023-07-08T05:52:05;21.01;61.14
67005;HTU21D;53920;51.094;5.902;2023-07-08T05:54:40;21.09;61.34
67005;HTU21D;53920;51.094;5.902;2023-07-08T05:57:08;21.19;59.90
67005;HTU21D;53920;51.094;5.902;2023-07-08T05:59:36;21.32;59.52
67005;HTU21D;53920;51.094;5.902;2023-07-08T06:02:03;21.45;60.52
67005;HTU21D;53920;51.094;5.902;2023-07-08T06:04:29;21.48;60.25
67005;HTU21D;53920;51.094;5.902;2023-07-08T06:06:54;21.60;58.74
67005;HTU21D;53920;51.094;5.902;2023-07-08T06:09:20;21.72;57.48
67005;HTU21D;53920;51.094;5.902;2023-07-08T06:11:46;21.84;57.34
67005;HTU21D;53920;51.094;5.902;2023-07-08T06:14:12;21.97;56.65
67005;HTU21D;53920;51.094;5.902;2023-07-08T06:16:38;22.12;55.18
67005;HTU21D;53920;51.094;5.902;2023-07-08T06:19:04;22.27;54.95
67005;HTU21D;53920;51.094;5.902;2023-07-08T06:21:30;22.43;53.65
67005;HTU21D;53920;51.094;5.902;2023-07-08T06:23:55;22.60;53.48
67005;HTU21D;53920;51.094;5.902;2023-07-08T06:26:21;22.71;53.55
67005;HTU21D;53920;51.094;5.902;2023-07-08T06:28:47;22.80;53.79
67005;HTU21D;53920;51.094;5.902;2023-07-08T06:31:13;22.90;52.72
67005;HTU21D;53920;51.094;5.902;2023-07-08T06:33:39;23.02;52.85
67005;HTU21D;53920;51.094;5.902;2023-07-08T06:36:04;23.12;52.71
67005;HTU21D;53920;51.094;5.902;2023-07-08T06:38:32;23.27;51.30
67005;HTU21D;53920;51.094;5.902;2023-07-08T06:40:58;23.46;50.57
67005;HTU21D;53920;51.094;5.902;2023-07-08T06:43:24;23.64;49.76
67005;HTU21D;53920;51.094;5.902;2023-07-08T06:45:55;23.81;48.73
67005;HTU21D;53920;51.094;5.902;2023-07-08T06:48:21;24.00;48.47
67005;HTU21D;53920;51.094;5.902;2023-07-08T06:50:48;24.27;48.76
67005;HTU21D;53920;51.094;5.902;2023-07-08T06:53:15;24.69;46.20
67005;HTU21D;53920;51.094;5.902;2023-07-08T06:55:41;25.93;43.39
67005;HTU21D;53920;51.094;5.902;2023-07-08T06:58:07;27.80;38.57
67005;HTU21D;53920;51.094;5.902;2023-07-08T07:00:32;29.56;34.58
67005;HTU21D;53920;51.094;5.902;2023-07-08T07:02:58;30.79;31.53
67005;HTU21D;53920;51.094;5.902;2023-07-08T07:05:24;31.20;30.59
67005;HTU21D;53920;51.094;5.902;2023-07-08T07:07:50;31.22;30.67
67005;HTU21D;53920;51.094;5.902;2023-07-08T07:10:18;31.93;28.87
67005;HTU21D;53920;51.094;5.902;2023-07-08T07:12:44;32.64;27.42
67005;HTU21D;53920;51.094;5.902;2023-07-08T07:15:10;32.34;27.59
67005;HTU21D;53920;51.094;5.902;2023-07-08T07:17:36;33.20;26.29
67005;HTU21D;53920;51.094;5.902;2023-07-08T07:20:03;33.14;26.77
67005;HTU21D;53920;51.094;5.902;2023-07-08T07:22:29;33.81;25.36
67005;HTU21D;53920;51.094;5.902;2023-07-08T07:24:55;34.98;23.49
67005;HTU21D;53920;51.094;5.902;2023-07-08T07:27:21;35.45;22.53
67005;HTU21D;53920;51.094;5.902;2023-07-08T07:29:51;35.78;22.56
67005;HTU21D;53920;51.094;5.902;2023-07-08T07:32:19;34.94;23.72
67005;HTU21D;53920;51.094;5.902;2023-07-08T07:34:48;34.74;24.58
67005;HTU21D;53920;51.094;5.902;2023-07-08T07:37:17;34.79;24.29
67005;HTU21D;53920;51.094;5.902;2023-07-08T07:39:43;35.93;22.62
67005;HTU21D;53920;51.094;5.902;2023-07-08T07:42:10;37.07;20.56
67005;HTU21D;53920;51.094;5.902;2023-07-08T07:44:36;37.88;19.41
67005;HTU21D;53920;51.094;5.902;2023-07-08T07:47:04;38.04;19.05
67005;HTU21D;53920;51.094;5.902;2023-07-08T07:49:30;38.71;18.64
67005;HTU21D;53920;51.094;5.902;2023-07-08T07:51:56;39.53;18.06
67005;HTU21D;53920;51.094;5.902;2023-07-08T07:54:21;40.21;17.14
67005;HTU21D;53920;51.094;5.902;2023-07-08T07:56:47;40.54;16.28
67005;HTU21D;53920;51.094;5.902;2023-07-08T07:59:13;41.00;15.81
67005;HTU21D;53920;51.094;5.902;2023-07-08T08:01:39;41.40;15.73
67005;HTU21D;53920;51.094;5.902;2023-07-08T08:04:06;41.86;14.66
67005;HTU21D;53920;51.094;5.902;2023-07-08T08:06:32;42.03;14.74
67005;HTU21D;53920;51.094;5.902;2023-07-08T08:08:58;41.88;14.17
67005;HTU21D;53920;51.094;5.902;2023-07-08T08:11:23;41.89;14.39
67005;HTU21D;53920;51.094;5.902;2023-07-08T08:13:52;41.86;14.98
67005;HTU21D;53920;51.094;5.902;2023-07-08T08:16:18;42.23;14.54
67005;HTU21D;53920;51.094;5.902;2023-07-08T08:18:44;42.50;13.95
67005;HTU21D;53920;51.094;5.902;2023-07-08T08:21:10;42.62;14.18
67005;HTU21D;53920;51.094;5.902;2023-07-08T08:23:36;43.04;13.65
67005;HTU21D;53920;51.094;5.902;2023-07-08T08:26:02;43.32;12.74
67005;HTU21D;53920;51.094;5.902;2023-07-08T08:28:28;43.02;12.00
67005;HTU21D;53920;51.094;5.902;2023-07-08T08:30:54;43.27;12.14
67005;HTU21D;53920;51.094;5.902;2023-07-08T08:33:20;43.67;12.41
67005;HTU21D;53920;51.094;5.902;2023-07-08T08:35:47;44.00;11.84
67005;HTU21D;53920;51.094;5.902;2023-07-08T08:38:13;43.52;12.21
67005;HTU21D;53920;51.094;5.902;2023-07-08T08:40:41;43.14;12.83
67005;HTU21D;53920;51.094;5.902;2023-07-08T08:43:21;42.96;13.14
67005;HTU21D;53920;51.094;5.902;2023-07-08T08:46:04;43.02;13.08
67005;HTU21D;53920;51.094;5.902;2023-07-08T08:48:40;42.32;13.68
67005;HTU21D;53920;51.094;5.902;2023-07-08T08:51:16;41.84;14.17
67005;HTU21D;53920;51.094;5.902;2023-07-08T08:53:45;41.93;14.05
67005;HTU21D;53920;51.094;5.902;2023-07-08T08:56:32;42.55;13.58
67005;HTU21D;53920;51.094;5.902;2023-07-08T08:59:13;43.44;13.15
67005;HTU21D;53920;51.094;5.902;2023-07-08T09:01:43;44.22;12.59
67005;HTU21D;53920;51.094;5.902;2023-07-08T09:04:25;45.00;12.08
67005;HTU21D;53920;51.094;5.902;2023-07-08T09:07:02;45.21;11.33
67005;HTU21D;53920;51.094;5.902;2023-07-08T09:09:40;45.48;10.69
67005;HTU21D;53920;51.094;5.902;2023-07-08T09:12:23;45.68;10.08
67005;HTU21D;53920;51.094;5.902;2023-07-08T09:14:50;45.88;9.61
67005;HTU21D;53920;51.094;5.902;2023-07-08T09:17:31;46.03;9.81
67005;HTU21D;53920;51.094;5.902;2023-07-08T09:22:53;46.29;9.47
67005;HTU21D;53920;51.094;5.902;2023-07-08T09:28:02;46.34;8.45
67005;HTU21D;53920;51.094;5.902;2023-07-08T09:30:28;46.17;9.41
67005;HTU21D;53920;51.094;5.902;2023-07-08T09:32:56;46.59;9.14
67005;HTU21D;53920;51.094;5.902;2023-07-08T09:35:26;46.54;9.08
67005;HTU21D;53920;51.094;5.902;2023-07-08T09:37:52;46.55;9.37
67005;HTU21D;53920;51.094;5.902;2023-07-08T09:43:38;46.57;8.91
67005;HTU21D;53920;51.094;5.902;2023-07-08T09:45:47;46.84;8.38
67005;HTU21D;53920;51.094;5.902;2023-07-08T09:48:18;47.02;8.21
67005;HTU21D;53920;51.094;5.902;2023-07-08T09:50:46;47.26;8.08
67005;HTU21D;53920;51.094;5.902;2023-07-08T09:53:14;47.11;8.28
67005;HTU21D;53920;51.094;5.902;2023-07-08T09:55:40;46.74;8.08
67005;HTU21D;53920;51.094;5.902;2023-07-08T09:58:25;46.88;8.68
67005;HTU21D;53920;51.094;5.902;2023-07-08T10:01:00;47.09;8.49
67005;HTU21D;53920;51.094;5.902;2023-07-08T10:03:36;46.94;8.11
67005;HTU21D;53920;51.094;5.902;2023-07-08T10:06:06;47.09;8.00
67005;HTU21D;53920;51.094;5.902;2023-07-08T10:08:44;47.08;7.84
67005;HTU21D;53920;51.094;5.902;2023-07-08T10:11:37;46.66;8.68
67005;HTU21D;53920;51.094;5.902;2023-07-08T10:14:35;46.50;8.89
67005;HTU21D;53920;51.094;5.902;2023-07-08T10:17:02;46.30;9.38
67005;HTU21D;53920;51.094;5.902;2023-07-08T10:19:29;46.22;9.23
67005;HTU21D;53920;51.094;5.902;2023-07-08T10:27:45;43.80;10.98
67005;HTU21D;53920;51.094;5.902;2023-07-08T10:30:29;44.03;10.62
67005;HTU21D;53920;51.094;5.902;2023-07-08T10:33:19;43.76;10.72
67005;HTU21D;53920;51.094;5.902;2023-07-08T10:41:37;45.29;9.76
67005;HTU21D;53920;51.094;5.902;2023-07-08T10:44:13;44.97;10.03
67005;HTU21D;53920;51.094;5.902;2023-07-08T10:52:31;44.97;9.90
67005;HTU21D;53920;51.094;5.902;2023-07-08T10:55:19;45.43;9.45
67005;HTU21D;53920;51.094;5.902;2023-07-08T10:58:03;45.72;9.37
67005;HTU21D;53920;51.094;5.902;2023-07-08T11:01:04;45.93;9.19
67005;HTU21D;53920;51.094;5.902;2023-07-08T11:04:38;45.91;9.15
67005;HTU21D;53920;51.094;5.902;2023-07-08T11:07:07;46.30;8.84
67005;HTU21D;53920;51.094;5.902;2023-07-08T11:09:56;46.30;8.85
67005;HTU21D;53920;51.094;5.902;2023-07-08T11:12:48;46.44;8.83
67005;HTU21D;53920;51.094;5.902;2023-07-08T11:18:17;45.53;9.24
67005;HTU21D;53920;51.094;5.902;2023-07-08T11:21:00;45.38;9.46
67005;HTU21D;53920;51.094;5.902;2023-07-08T11:23:41;45.58;9.30
67005;HTU21D;53920;51.094;5.902;2023-07-08T11:26:14;45.45;9.43
67005;HTU21D;53920;51.094;5.902;2023-07-08T11:28:41;44.81;9.97
67005;HTU21D;53920;51.094;5.902;2023-07-08T11:31:08;44.68;9.87
67005;HTU21D;53920;51.094;5.902;2023-07-08T11:33:35;44.40;9.73
67005;HTU21D;53920;51.094;5.902;2023-07-08T11:36:04;44.81;9.57
67005;HTU21D;53920;51.094;5.902;2023-07-08T11:38:32;45.18;9.03
67005;HTU21D;53920;51.094;5.902;2023-07-08T11:41:03;45.48;8.83
67005;HTU21D;53920;51.094;5.902;2023-07-08T11:43:47;45.58;8.56
67005;HTU21D;53920;51.094;5.902;2023-07-08T11:46:19;44.83;9.25
67005;HTU21D;53920;51.094;5.902;2023-07-08T11:48:50;44.50;9.71
67005;HTU21D;53920;51.094;5.902;2023-07-08T11:51:22;44.59;9.82
67005;HTU21D;53920;51.094;5.902;2023-07-08T11:53:51;45.05;9.56
67005;HTU21D;53920;51.094;5.902;2023-07-08T11:56:25;45.60;9.25
67005;HTU21D;53920;51.094;5.902;2023-07-08T12:01:28;45.49;8.76
67005;HTU21D;53920;51.094;5.902;2023-07-08T12:07:14;45.69;8.55
67005;HTU21D;53920;51.094;5.902;2023-07-08T12:09:57;45.73;8.79
67005;HTU21D;53920;51.094;5.902;2023-07-08T12:12:35;45.64;8.80
67005;HTU21D;53920;51.094;5.902;2023-07-08T12:17:39;44.86;9.31
67005;HTU21D;53920;51.094;5.902;2023-07-08T12:20:21;45.03;9.49
67005;HTU21D;53920;51.094;5.902;2023-07-08T12:22:47;44.80;9.44
67005;HTU21D;53920;51.094;5.902;2023-07-08T12:25:20;44.76;9.47
67005;HTU21D;53920;51.094;5.902;2023-07-08T12:27:47;44.47;9.81
67005;HTU21D;53920;51.094;5.902;2023-07-08T12:30:15;44.20;10.17
67005;HTU21D;53920;51.094;5.902;2023-07-08T12:32:43;43.80;11.03
67005;HTU21D;53920;51.094;5.902;2023-07-08T12:35:42;43.70;11.07
67005;HTU21D;53920;51.094;5.902;2023-07-08T12:38:29;43.55;10.82
67005;HTU21D;53920;51.094;5.902;2023-07-08T12:41:02;44.11;10.86
67005;HTU21D;53920;51.094;5.902;2023-07-08T12:43:29;44.10;10.75
67005;HTU21D;53920;51.094;5.902;2023-07-08T12:45:55;44.03;10.84
67005;HTU21D;53920;51.094;5.902;2023-07-08T12:48:20;44.01;10.91
67005;HTU21D;53920;51.094;5.902;2023-07-08T12:50:46;43.56;11.05
67005;HTU21D;53920;51.094;5.902;2023-07-08T12:53:12;43.00;11.61
67005;HTU21D;53920;51.094;5.902;2023-07-08T12:55:41;42.47;12.26
67005;HTU21D;53920;51.094;5.902;2023-07-08T12:58:13;42.55;12.84
67005;HTU21D;53920;51.094;5.902;2023-07-08T13:00:42;42.89;12.66
67005;HTU21D;53920;51.094;5.902;2023-07-08T13:03:19;43.27;11.85
67005;HTU21D;53920;51.094;5.902;2023-07-08T13:05:49;43.50;11.33
67005;HTU21D;53920;51.094;5.902;2023-07-08T13:08:20;43.41;11.64
67005;HTU21D;53920;51.094;5.902;2023-07-08T13:10:47;43.44;11.21
67005;HTU21D;53920;51.094;5.902;2023-07-08T13:13:21;43.71;11.45
67005;HTU21D;53920;51.094;5.902;2023-07-08T13:15:50;43.58;11.33
67005;HTU21D;53920;51.094;5.902;2023-07-08T13:18:36;42.96;11.66
67005;HTU21D;53920;51.094;5.902;2023-07-08T13:21:05;42.98;12.10
67005;HTU21D;53920;51.094;5.902;2023-07-08T13:23:33;43.32;11.73
67005;HTU21D;53920;51.094;5.902;2023-07-08T13:26:00;43.64;11.49
67005;HTU21D;53920;51.094;5.902;2023-07-08T13:28:36;43.00;11.97
67005;HTU21D;53920;51.094;5.902;2023-07-08T13:31:20;42.37;12.34
67005;HTU21D;53920;51.094;5.902;2023-07-08T13:33:53;42.32;12.64
67005;HTU21D;53920;51.094;5.902;2023-07-08T13:36:24;42.68;12.31
67005;HTU21D;53920;51.094;5.902;2023-07-08T13:38:51;42.81;12.28
67005;HTU21D;53920;51.094;5.902;2023-07-08T13:41:22;42.90;12.14
67005;HTU21D;53920;51.094;5.902;2023-07-08T13:43:50;42.87;12.10
67005;HTU21D;53920;51.094;5.902;2023-07-08T13:49:01;43.09;11.91
67005;HTU21D;53920;51.094;5.902;2023-07-08T13:51:31;42.83;11.75
67005;HTU21D;53920;51.094;5.902;2023-07-08T13:54:00;42.80;11.81
67005;HTU21D;53920;51.094;5.902;2023-07-08T13:56:34;42.52;11.84
67005;HTU21D;53920;51.094;5.902;2023-07-08T13:59:04;41.98;12.35
67005;HTU21D;53920;51.094;5.902;2023-07-08T14:01:33;41.12;13.39
67005;HTU21D;53920;51.094;5.902;2023-07-08T14:04:00;40.19;14.39
67005;HTU21D;53920;51.094;5.902;2023-07-08T14:06:32;39.48;15.51
67005;HTU21D;53920;51.094;5.902;2023-07-08T14:11:38;38.35;17.33
67005;HTU21D;53920;51.094;5.902;2023-07-08T14:14:04;38.16;17.77
67005;HTU21D;53920;51.094;5.902;2023-07-08T14:16:34;37.82;18.19
67005;HTU21D;53920;51.094;5.902;2023-07-08T14:19:03;37.63;18.53
67005;HTU21D;53920;51.094;5.902;2023-07-08T14:21:30;37.57;18.65
67005;HTU21D;53920;51.094;5.902;2023-07-08T14:23:56;37.50;18.84
67005;HTU21D;53920;51.094;5.902;2023-07-08T14:26:22;37.49;19.08
67005;HTU21D;53920;51.094;5.902;2023-07-08T14:28:48;37.50;18.99
67005;HTU21D;53920;51.094;5.902;2023-07-08T14:31:20;37.45;19.30
67005;HTU21D;53920;51.094;5.902;2023-07-08T14:33:47;37.33;19.28
67005;HTU21D;53920;51.094;5.902;2023-07-08T14:36:13;37.22;19.70
67005;HTU21D;53920;51.094;5.902;2023-07-08T14:38:41;37.25;19.63
67005;HTU21D;53920;51.094;5.902;2023-07-08T14:41:06;37.22;19.79
67005;HTU21D;53920;51.094;5.902;2023-07-08T14:43:33;37.28;19.82
67005;HTU21D;53920;51.094;5.902;2023-07-08T14:46:02;37.20;19.79
67005;HTU21D;53920;51.094;5.902;2023-07-08T14:48:30;37.25;19.25
67005;HTU21D;53920;51.094;5.902;2023-07-08T14:50:56;37.27;19.29
67005;HTU21D;53920;51.094;5.902;2023-07-08T14:53:23;37.38;19.44
67005;HTU21D;53920;51.094;5.902;2023-07-08T14:55:52;37.45;18.99
67005;HTU21D;53920;51.094;5.902;2023-07-08T14:58:30;37.55;18.66
67005;HTU21D;53920;51.094;5.902;2023-07-08T15:00:59;37.61;19.30
67005;HTU21D;53920;51.094;5.902;2023-07-08T15:03:26;37.52;19.15
67005;HTU21D;53920;51.094;5.902;2023-07-08T15:05:52;37.46;18.56
67005;HTU21D;53920;51.094;5.902;2023-07-08T15:08:18;37.34;19.12
67005;HTU21D;53920;51.094;5.902;2023-07-08T15:10:48;37.25;19.38
67005;HTU21D;53920;51.094;5.902;2023-07-08T15:13:18;37.10;19.36
67005;HTU21D;53920;51.094;5.902;2023-07-08T15:15:45;36.93;19.97
67005;HTU21D;53920;51.094;5.902;2023-07-08T15:18:14;36.82;19.90
67005;HTU21D;53920;51.094;5.902;2023-07-08T15:20:41;36.78;21.14
67005;HTU21D;53920;51.094;5.902;2023-07-08T15:23:09;36.63;20.79
67005;HTU21D;53920;51.094;5.902;2023-07-08T15:25:36;36.47;21.37
67005;HTU21D;53920;51.094;5.902;2023-07-08T15:28:04;36.27;21.12
67005;HTU21D;53920;51.094;5.902;2023-07-08T15:30:31;36.10;20.73
67005;HTU21D;53920;51.094;5.902;2023-07-08T15:32:58;36.06;21.18
67005;HTU21D;53920;51.094;5.902;2023-07-08T15:35:26;36.03;21.05
67005;HTU21D;53920;51.094;5.902;2023-07-08T15:37:58;36.04;20.99
67005;HTU21D;53920;51.094;5.902;2023-07-08T15:40:32;36.12;21.28
67005;HTU21D;53920;51.094;5.902;2023-07-08T15:43:01;36.22;21.28
67005;HTU21D;53920;51.094;5.902;2023-07-08T15:45:36;36.19;21.50
67005;HTU21D;53920;51.094;5.902;2023-07-08T15:48:03;36.19;21.73
67005;HTU21D;53920;51.094;5.902;2023-07-08T15:50:30;36.17;21.63
67005;HTU21D;53920;51.094;5.902;2023-07-08T15:52:56;36.10;21.56
67005;HTU21D;53920;51.094;5.902;2023-07-08T15:55:35;36.02;21.57
67005;HTU21D;53920;51.094;5.902;2023-07-08T15:58:15;35.97;21.66
67005;HTU21D;53920;51.094;5.902;2023-07-08T16:00:44;35.97;21.60
67005;HTU21D;53920;51.094;5.902;2023-07-08T16:03:26;36.12;22.64
67005;HTU21D;53920;51.094;5.902;2023-07-08T16:05:54;36.19;22.97
67005;HTU21D;53920;51.094;5.902;2023-07-08T16:08:20;36.11;23.38
67005;HTU21D;53920;51.094;5.902;2023-07-08T16:11:31;36.04;23.84
67005;HTU21D;53920;51.094;5.902;2023-07-08T16:13:57;36.03;23.98
67005;HTU21D;53920;51.094;5.902;2023-07-08T16:16:24;35.94;24.11
67005;HTU21D;53920;51.094;5.902;2023-07-08T16:18:51;36.02;24.06
67005;HTU21D;53920;51.094;5.902;2023-07-08T16:21:17;36.13;24.05
67005;HTU21D;53920;51.094;5.902;2023-07-08T16:23:43;36.17;23.76